sensor_id;sensor_type;location;lat;lon;timestamp;P1;durP1;ratioP1;P2;durP2;ratioP2
11422;SDS011;5768;51.476;7.210;2023-07-09T00:04:49;4.28;;;3.88;;
11422;SDS011;5768;51.476;7.210;2023-07-09T00:09:53;5.95;;;4.40;;
11422;SDS011;5768;51.476;7.210;2023-07-09T00:14:56;5.10;;;4.55;;
11422;SDS011;5768;51.476;7.210;2023-07-09T00:20:00;4.82;;;4.28;;
11422;SDS011;5768;51.476;7.210;2023-07-09T00:25:03;6.00;;;4.68;;
11422;SDS011;5768;51.476;7.210;2023-07-09T00:30:08;4.95;;;4.47;;
11422;SDS011;5768;51.476;7.210;2023-07-09T00:35:19;6.68;;;4.65;;
11422;SDS011;5768;51.476;7.210;2023-07-09T00:40:23;6.47;;;4.40;;
11422;SDS011;5768;51.476;7.210;2023-07-09T00:45:26;7.82;;;5.00;;
11422;SDS011;5768;51.476;7.210;2023-07-09T00:50:33;5.65;;;5.05;;
11422;SDS011;5768;51.476;7.210;2023-07-09T00:55:41;6.65;;;5.13;;
11422;SDS011;5768;51.476;7.210;2023-07-09T01:00:47;6.97;;;5.20;;
11422;SDS011;5768;51.476;7.210;2023-07-09T01:05:57;5.90;;;4.85;;
11422;SDS011;5768;51.476;7.210;2023-07-09T01:11:00;5.65;;;5.03;;
11422;SDS011;5768;51.476;7.210;2023-07-09T01:16:02;6.47;;;5.47;;
11422;SDS011;5768;51.476;7.210;2023-07-09T01:21:08;5.70;;;5.10;;
11422;SDS011;5768;51.476;7.210;2023-07-09T01:26:16;8.45;;;5.70;;
11422;SDS011;5768;51.476;7.210;2023-07-09T01:31:21;8.73;;;6.50;;
11422;SDS011;5768;51.476;7.210;2023-07-09T01:36:25;7.53;;;5.85;;
11422;SDS011;5768;51.476;7.210;2023-07-09T01:41:28;9.50;;;5.43;;
11422;SDS011;5768;51.476;7.210;2023-07-09T01:46:34;7.25;;;6.47;;
11422;SDS011;5768;51.476;7.210;2023-07-09T01:51:38;9.13;;;5.57;;
11422;SDS011;5768;51.476;7.210;2023-07-09T01:56:40;7.93;;;5.57;;
11422;SDS011;5768;51.476;7.210;2023-07-09T02:01:42;6.88;;;5.82;;
11422;SDS011;5768;51.476;7.210;2023-07-09T02:06:47;8.45;;;6.03;;
11422;SDS011;5768;51.476;7.210;2023-07-09T02:11:49;5.70;;;5.15;;
11422;SDS011;5768;51.476;7.210;2023-07-09T02:16:51;6.53;;;5.03;;
11422;SDS011;5768;51.476;7.210;2023-07-09T02:21:55;5.20;;;4.68;;
11422;SDS011;5768;51.476;7.210;2023-07-09T02:26:58;6.22;;;5.63;;
11422;SDS011;5768;51.476;7.210;2023-07-09T02:32:04;7.05;;;5.07;;
11422;SDS011;5768;51.476;7.210;2023-07-09T02:37:08;7.97;;;6.07;;
11422;SDS011;5768;51.476;7.210;2023-07-09T02:42:11;5.80;;;5.00;;
11422;SDS011;5768;51.476;7.210;2023-07-09T02:47:16;6.63;;;5.20;;
11422;SDS011;5768;51.476;7.210;2023-07-09T02:52:19;5.82;;;5.28;;
11422;SDS011;5768;51.476;7.210;2023-07-09T02:57:21;6.45;;;4.95;;
11422;SDS011;5768;51.476;7.210;2023-07-09T03:02:24;6.78;;;5.28;;
11422;SDS011;5768;51.476;7.210;2023-07-09T03:07:28;6.13;;;5.20;;
11422;SDS011;5768;51.476;7.210;2023-07-09T03:12:30;6.47;;;5.53;;
11422;SDS011;5768;51.476;7.210;2023-07-09T03:17:32;6.10;;;5.38;;
11422;SDS011;5768;51.476;7.210;2023-07-09T03:22:36;6.80;;;5.15;;
11422;SDS011;5768;51.476;7.210;2023-07-09T03:27:38;6.95;;;5.68;;
11422;SDS011;5768;51.476;7.210;2023-07-09T03:32:40;5.32;;;4.82;;
11422;SDS011;5768;51.476;7.210;2023-07-09T03:37:45;7.82;;;5.07;;
11422;SDS011;5768;51.476;7.210;2023-07-09T03:42:48;6.40;;;5.70;;
11422;SDS011;5768;51.476;7.210;2023-07-09T03:47:50;7.18;;;5.47;;
11422;SDS011;5768;51.476;7.210;2023-07-09T03:52:54;7.82;;;6.18;;
11422;SDS011;5768;51.476;7.210;2023-07-09T03:57:56;5.80;;;4.78;;
11422;SDS011;5768;51.476;7.210;2023-07-09T04:02:59;5.97;;;5.30;;
11422;SDS011;5768;51.476;7.210;2023-07-09T04:08:03;7.63;;;5.50;;
11422;SDS011;5768;51.476;7.210;2023-07-09T04:13:06;7.78;;;5.47;;
11422;SDS011;5768;51.476;7.210;2023-07-09T04:18:08;5.45;;;4.88;;
11422;SDS011;5768;51.476;7.210;2023-07-09T04:23:12;7.70;;;5.38;;
11422;SDS011;5768;51.476;7.210;2023-07-09T04:28:15;5.85;;;5.25;;
11422;SDS011;5768;51.476;7.210;2023-07-09T04:33:17;7.72;;;5.45;;
11422;SDS011;5768;51.476;7.210;2023-07-09T04:38:22;6.97;;;5.60;;
11422;SDS011;5768;51.476;7.210;2023-07-09T04:43:25;7.38;;;5.18;;
11422;SDS011;5768;51.476;7.210;2023-07-09T04:48:27;6.85;;;5.15;;
11422;SDS011;5768;51.476;7.210;2023-07-09T04:53:30;7.40;;;5.30;;
11422;SDS011;5768;51.476;7.210;2023-07-09T04:58:33;8.82;;;5.75;;
11422;SDS011;5768;51.476;7.210;2023-07-09T05:03:35;9.00;;;5.80;;
11422;SDS011;5768;51.476;7.210;2023-07-09T05:08:40;8.88;;;5.85;;
11422;SDS011;5768;51.476;7.210;2023-07-09T05:13:43;7.88;;;5.60;;
11422;SDS011;5768;51.476;7.210;2023-07-09T05:18:45;7.35;;;5.57;;
11422;SDS011;5768;51.476;7.210;2023-07-09T05:23:50;8.55;;;5.30;;
11422;SDS011;5768;51.476;7.210;2023-07-09T05:28:53;5.93;;;5.32;;
11422;SDS011;5768;51.476;7.210;2023-07-09T05:33:58;6.70;;;6.00;;
11422;SDS011;5768;51.476;7.210;2023-07-09T05:39:02;9.07;;;5.80;;
11422;SDS011;5768;51.476;7.210;2023-07-09T05:44:04;7.63;;;5.72;;
11422;SDS011;5768;51.476;7.210;2023-07-09T05:49:06;5.82;;;5.18;;
11422;SDS011;5768;51.476;7.210;2023-07-09T05:54:10;7.00;;;5.85;;
11422;SDS011;5768;51.476;7.210;2023-07-09T05:59:12;7.32;;;5.22;;
11422;SDS011;5768;51.476;7.210;2023-07-09T06:04:14;5.85;;;5.10;;
11422;SDS011;5768;51.476;7.210;2023-07-09T06:09:19;6.00;;;5.13;;
11422;SDS011;5768;51.476;7.210;2023-07-09T06:14:21;8.85;;;5.45;;
11422;SDS011;5768;51.476;7.210;2023-07-09T06:19:24;5.88;;;5.05;;
11422;SDS011;5768;51.476;7.210;2023-07-09T06:24:29;8.20;;;5.05;;
11422;SDS011;5768;51.476;7.210;2023-07-09T06:29:31;6.05;;;4.85;;
11422;SDS011;5768;51.476;7.210;2023-07-09T06:34:36;7.28;;;5.40;;
11422;SDS011;5768;51.476;7.210;2023-07-09T06:39:39;6.72;;;5.20;;
11422;SDS011;5768;51.476;7.210;2023-07-09T06:44:45;7.47;;;4.85;;
11422;SDS011;5768;51.476;7.210;2023-07-09T06:49:47;6.43;;;5.70;;
11422;SDS011;5768;51.476;7.210;2023-07-09T06:54:51;7.18;;;5.00;;
11422;SDS011;5768;51.476;7.210;2023-07-09T06:59:53;7.75;;;5.55;;
11422;SDS011;5768;51.476;7.210;2023-07-09T07:04:55;8.80;;;5.60;;
11422;SDS011;5768;51.476;7.210;2023-07-09T07:09:59;5.82;;;5.25;;
11422;SDS011;5768;51.476;7.210;2023-07-09T07:15:01;7.35;;;5.35;;
11422;SDS011;5768;51.476;7.210;2023-07-09T07:20:03;8.52;;;5.25;;
11422;SDS011;5768;51.476;7.210;2023-07-09T07:25:08;6.53;;;5.50;;
11422;SDS011;5768;51.476;7.210;2023-07-09T07:30:11;8.30;;;5.75;;
11422;SDS011;5768;51.476;7.210;2023-07-09T07:35:14;6.95;;;5.60;;
11422;SDS011;5768;51.476;7.210;2023-07-09T07:40:20;7.93;;;5.45;;
11422;SDS011;5768;51.476;7.210;2023-07-09T07:45:23;6.60;;;5.40;;
11422;SDS011;5768;51.476;7.210;2023-07-09T07:50:25;7.15;;;5.47;;
11422;SDS011;5768;51.476;7.210;2023-07-09T07:55:29;6.78;;;5.40;;
11422;SDS011;5768;51.476;7.210;2023-07-09T08:00:31;6.10;;;5.28;;
11422;SDS011;5768;51.476;7.210;2023-07-09T08:05:34;6.75;;;5.78;;
11422;SDS011;5768;51.476;7.210;2023-07-09T08:10:37;9.00;;;6.07;;
11422;SDS011;5768;51.476;7.210;2023-07-09T08:15:40;8.18;;;5.75;;
11422;SDS011;5768;51.476;7.210;2023-07-09T08:20:43;9.27;;;6.05;;
11422;SDS011;5768;51.476;7.210;2023-07-09T08:25:53;8.20;;;6.45;;
11422;SDS011;5768;51.476;7.210;2023-07-09T08:30:56;6.80;;;5.63;;
11422;SDS011;5768;51.476;7.210;2023-07-09T08:35:59;8.95;;;5.93;;
11422;SDS011;5768;51.476;7.210;2023-07-09T08:41:07;8.05;;;6.30;;
11422;SDS011;5768;51.476;7.210;2023-07-09T08:46:24;6.82;;;5.70;;
11422;SDS011;5768;51.476;7.210;2023-07-09T08:51:40;11.52;;;5.40;;
11422;SDS011;5768;51.476;7.210;2023-07-09T08:56:46;6.88;;;5.57;;
11422;SDS011;5768;51.476;7.210;2023-07-09T09:01:50;7.43;;;5.25;;
11422;SDS011;5768;51.476;7.210;2023-07-09T09:07:00;6.00;;;5.32;;
11422;SDS011;5768;51.476;7.210;2023-07-09T09:12:23;7.72;;;4.70;;
11422;SDS011;5768;51.476;7.210;2023-07-09T09:17:34;8.48;;;5.30;;
11422;SDS011;5768;51.476;7.210;2023-07-09T09:22:42;6.07;;;5.07;;
11422;SDS011;5768;51.476;7.210;2023-07-09T09:27:51;5.90;;;4.72;;
11422;SDS011;5768;51.476;7.210;2023-07-09T09:32:54;5.95;;;4.65;;
11422;SDS011;5768;51.476;7.210;2023-07-09T09:37:59;5.43;;;4.60;;
11422;SDS011;5768;51.476;7.210;2023-07-09T09:43:08;5.60;;;5.10;;
11422;SDS011;5768;51.476;7.210;2023-07-09T09:48:16;6.38;;;4.78;;
11422;SDS011;5768;51.476;7.210;2023-07-09T09:53:22;6.57;;;4.57;;
11422;SDS011;5768;51.476;7.210;2023-07-09T09:58:29;6.85;;;4.28;;
11422;SDS011;5768;51.476;7.210;2023-07-09T10:03:32;6.78;;;4.38;;
11422;SDS011;5768;51.476;7.210;2023-07-09T10:08:38;6.45;;;4.50;;
11422;SDS011;5768;51.476;7.210;2023-07-09T10:13:57;5.82;;;4.32;;
11422;SDS011;5768;51.476;7.210;2023-07-09T10:19:09;5.20;;;4.13;;
11422;SDS011;5768;51.476;7.210;2023-07-09T10:24:36;7.10;;;4.40;;
11422;SDS011;5768;51.476;7.210;2023-07-09T10:29:57;7.20;;;4.25;;
11422;SDS011;5768;51.476;7.210;2023-07-09T10:35:21;5.45;;;4.20;;
11422;SDS011;5768;51.476;7.210;2023-07-09T10:40:33;7.22;;;4.43;;
11422;SDS011;5768;51.476;7.210;2023-07-09T10:45:43;5.13;;;4.10;;
11422;SDS011;5768;51.476;7.210;2023-07-09T10:50:50;4.22;;;3.83;;
11422;SDS011;5768;51.476;7.210;2023-07-09T10:55:55;7.93;;;4.00;;
11422;SDS011;5768;51.476;7.210;2023-07-09T11:01:03;3.95;;;3.40;;
11422;SDS011;5768;51.476;7.210;2023-07-09T11:06:09;4.05;;;3.30;;
11422;SDS011;5768;51.476;7.210;2023-07-09T11:11:24;5.55;;;3.42;;
11422;SDS011;5768;51.476;7.210;2023-07-09T11:16:36;5.55;;;3.50;;
11422;SDS011;5768;51.476;7.210;2023-07-09T11:21:45;8.68;;;3.60;;
11422;SDS011;5768;51.476;7.210;2023-07-09T11:27:01;5.05;;;3.30;;
11422;SDS011;5768;51.476;7.210;2023-07-09T11:32:08;5.13;;;3.20;;
11422;SDS011;5768;51.476;7.210;2023-07-09T11:37:13;4.65;;;3.60;;
11422;SDS011;5768;51.476;7.210;2023-07-09T11:42:28;5.20;;;3.47;;
11422;SDS011;5768;51.476;7.210;2023-07-09T11:47:36;6.07;;;3.58;;
11422;SDS011;5768;51.476;7.210;2023-07-09T11:52:45;5.38;;;3.53;;
11422;SDS011;5768;51.476;7.210;2023-07-09T11:57:53;6.25;;;4.45;;
11422;SDS011;5768;51.476;7.210;2023-07-09T12:02:57;7.32;;;3.33;;
11422;SDS011;5768;51.476;7.210;2023-07-09T12:08:02;6.43;;;3.25;;
11422;SDS011;5768;51.476;7.210;2023-07-09T12:13:08;5.10;;;3.58;;
11422;SDS011;5768;51.476;7.210;2023-07-09T12:18:15;7.28;;;3.50;;
11422;SDS011;5768;51.476;7.210;2023-07-09T12:23:19;5.13;;;3.88;;
11422;SDS011;5768;51.476;7.210;2023-07-09T12:28:27;4.40;;;3.97;;
11422;SDS011;5768;51.476;7.210;2023-07-09T12:33:32;4.97;;;3.65;;
11422;SDS011;5768;51.476;7.210;2023-07-09T12:38:38;6.57;;;3.20;;
11422;SDS011;5768;51.476;7.210;2023-07-09T12:43:45;4.75;;;3.97;;
11422;SDS011;5768;51.476;7.210;2023-07-09T12:48:50;6.03;;;3.45;;
11422;SDS011;5768;51.476;7.210;2023-07-09T12:54:00;4.63;;;3.53;;
11422;SDS011;5768;51.476;7.210;2023-07-09T12:59:05;3.58;;;3.22;;
11422;SDS011;5768;51.476;7.210;2023-07-09T13:04:21;4.60;;;3.20;;
11422;SDS011;5768;51.476;7.210;2023-07-09T13:09:30;4.00;;;3.35;;
11422;SDS011;5768;51.476;7.210;2023-07-09T13:14:32;4.43;;;3.50;;
11422;SDS011;5768;51.476;7.210;2023-07-09T13:19:36;6.30;;;3.17;;
11422;SDS011;5768;51.476;7.210;2023-07-09T13:24:38;3.72;;;3.20;;
11422;SDS011;5768;51.476;7.210;2023-07-09T13:29:41;4.68;;;3.25;;
11422;SDS011;5768;51.476;7.210;2023-07-09T13:34:48;3.75;;;3.33;;
11422;SDS011;5768;51.476;7.210;2023-07-09T13:39:50;5.38;;;3.30;;
11422;SDS011;5768;51.476;7.210;2023-07-09T13:44:52;5.00;;;3.60;;
11422;SDS011;5768;51.476;7.210;2023-07-09T13:49:56;4.50;;;3.53;;
11422;SDS011;5768;51.476;7.210;2023-07-09T13:54:59;4.93;;;3.25;;
11422;SDS011;5768;51.476;7.210;2023-07-09T14:00:01;6.07;;;3.95;;
11422;SDS011;5768;51.476;7.210;2023-07-09T14:05:06;5.63;;;3.85;;
11422;SDS011;5768;51.476;7.210;2023-07-09T14:10:13;5.68;;;3.92;;
11422;SDS011;5768;51.476;7.210;2023-07-09T14:15:18;6.55;;;5.00;;
11422;SDS011;5768;51.476;7.210;2023-07-09T14:20:24;5.25;;;4.40;;
11422;SDS011;5768;51.476;7.210;2023-07-09T14:25:26;4.95;;;4.15;;
11422;SDS011;5768;51.476;7.210;2023-07-09T14:30:29;8.43;;;7.07;;
11422;SDS011;5768;51.476;7.210;2023-07-09T14:35:33;6.60;;;5.70;;
11422;SDS011;5768;51.476;7.210;2023-07-09T14:40:36;7.78;;;4.68;;
11422;SDS011;5768;51.476;7.210;2023-07-09T14:45:38;6.30;;;4.90;;
11422;SDS011;5768;51.476;7.210;2023-07-09T14:50:43;5.63;;;4.65;;
11422;SDS011;5768;51.476;7.210;2023-07-09T14:55:45;7.80;;;4.90;;
11422;SDS011;5768;51.476;7.210;2023-07-09T15:00:48;7.75;;;3.67;;
11422;SDS011;5768;51.476;7.210;2023-07-09T15:05:54;7.80;;;3.63;;
11422;SDS011;5768;51.476;7.210;2023-07-09T15:11:04;9.82;;;3.10;;
11422;SDS011;5768;51.476;7.210;2023-07-09T15:16:10;7.22;;;5.22;;
11422;SDS011;5768;51.476;7.210;2023-07-09T15:21:14;7.38;;;4.80;;
11422;SDS011;5768;51.476;7.210;2023-07-09T15:26:17;10.32;;;5.85;;
11422;SDS011;5768;51.476;7.210;2023-07-09T15:31:19;6.07;;;4.47;;
11422;SDS011;5768;51.476;7.210;2023-07-09T15:36:23;12.05;;;6.40;;
11422;SDS011;5768;51.476;7.210;2023-07-09T15:41:26;9.55;;;6.82;;
11422;SDS011;5768;51.476;7.210;2023-07-09T15:46:28;9.63;;;6.53;;
11422;SDS011;5768;51.476;7.210;2023-07-09T15:51:32;11.55;;;9.00;;
11422;SDS011;5768;51.476;7.210;2023-07-09T15:56:34;9.13;;;7.95;;
11422;SDS011;5768;51.476;7.210;2023-07-09T16:01:37;12.15;;;9.07;;
11422;SDS011;5768;51.476;7.210;2023-07-09T16:06:41;8.88;;;7.57;;
11422;SDS011;5768;51.476;7.210;2023-07-09T16:11:44;10.07;;;8.68;;
11422;SDS011;5768;51.476;7.210;2023-07-09T16:16:49;9.27;;;7.95;;
11422;SDS011;5768;51.476;7.210;2023-07-09T16:21:54;9.05;;;7.90;;
11422;SDS011;5768;51.476;7.210;2023-07-09T16:27:03;10.68;;;8.38;;
11422;SDS011;5768;51.476;7.210;2023-07-09T16:32:11;13.43;;;9.00;;
11422;SDS011;5768;51.476;7.210;2023-07-09T16:37:16;12.27;;;10.43;;
11422;SDS011;5768;51.476;7.210;2023-07-09T16:42:23;11.35;;;9.30;;
11422;SDS011;5768;51.476;7.210;2023-07-09T16:47:25;8.48;;;7.47;;
11422;SDS011;5768;51.476;7.210;2023-07-09T16:52:29;10.63;;;7.70;;
11422;SDS011;5768;51.476;7.210;2023-07-09T16:57:32;10.20;;;7.88;;
11422;SDS011;5768;51.476;7.210;2023-07-09T17:02:35;8.85;;;7.10;;
11422;SDS011;5768;51.476;7.210;2023-07-09T17:07:39;8.50;;;7.60;;
11422;SDS011;5768;51.476;7.210;2023-07-09T17:12:41;9.30;;;8.40;;
11422;SDS011;5768;51.476;7.210;2023-07-09T17:17:44;9.02;;;7.65;;
11422;SDS011;5768;51.476;7.210;2023-07-09T17:22:48;8.00;;;7.00;;
11422;SDS011;5768;51.476;7.210;2023-07-09T17:27:52;6.90;;;6.18;;
11422;SDS011;5768;51.476;7.210;2023-07-09T17:32:55;7.55;;;6.20;;
11422;SDS011;5768;51.476;7.210;2023-07-09T17:37:59;6.85;;;6.15;;
11422;SDS011;5768;51.476;7.210;2023-07-09T17:43:02;7.47;;;6.78;;
11422;SDS011;5768;51.476;7.210;2023-07-09T17:48:13;7.75;;;6.30;;
11422;SDS011;5768;51.476;7.210;2023-07-09T17:53:20;6.10;;;5.50;;
11422;SDS011;5768;51.476;7.210;2023-07-09T17:58:26;7.25;;;5.20;;
11422;SDS011;5768;51.476;7.210;2023-07-09T18:03:31;6.10;;;5.25;;
11422;SDS011;5768;51.476;7.210;2023-07-09T18:08:35;7.10;;;5.82;;
11422;SDS011;5768;51.476;7.210;2023-07-09T18:13:37;6.65;;;5.40;;
11422;SDS011;5768;51.476;7.210;2023-07-09T18:18:39;7.13;;;5.60;;
11422;SDS011;5768;51.476;7.210;2023-07-09T18:23:43;6.57;;;5.43;;
11422;SDS011;5768;51.476;7.210;2023-07-09T18:28:45;7.25;;;5.60;;
11422;SDS011;5768;51.476;7.210;2023-07-09T18:33:47;6.22;;;4.72;;
11422;SDS011;5768;51.476;7.210;2023-07-09T18:38:51;6.85;;;5.93;;
11422;SDS011;5768;51.476;7.210;2023-07-09T18:43:53;6.15;;;5.45;;
11422;SDS011;5768;51.476;7.210;2023-07-09T18:48:55;7.35;;;5.75;;
11422;SDS011;5768;51.476;7.210;2023-07-09T18:54:00;6.90;;;6.00;;
11422;SDS011;5768;51.476;7.210;2023-07-09T18:59:10;10.57;;;6.93;;
11422;SDS011;5768;51.476;7.210;2023-07-09T19:04:19;8.63;;;7.82;;
11422;SDS011;5768;51.476;7.210;2023-07-09T19:09:29;9.18;;;8.13;;
11422;SDS011;5768;51.476;7.210;2023-07-09T19:14:31;9.90;;;8.90;;
11422;SDS011;5768;51.476;7.210;2023-07-09T19:19:34;10.95;;;9.80;;
11422;SDS011;5768;51.476;7.210;2023-07-09T19:24:38;12.68;;;10.68;;
11422;SDS011;5768;51.476;7.210;2023-07-09T19:29:41;10.90;;;9.75;;
11422;SDS011;5768;51.476;7.210;2023-07-09T19:34:44;11.35;;;10.15;;
11422;SDS011;5768;51.476;7.210;2023-07-09T19:39:49;10.40;;;9.32;;
11422;SDS011;5768;51.476;7.210;2023-07-09T19:44:51;10.27;;;9.18;;
11422;SDS011;5768;51.476;7.210;2023-07-09T19:49:54;10.90;;;9.70;;
11422;SDS011;5768;51.476;7.210;2023-07-09T19:55:00;11.68;;;10.48;;
11422;SDS011;5768;51.476;7.210;2023-07-09T20:00:18;12.00;;;10.90;;
11422;SDS011;5768;51.476;7.210;2023-07-09T20:05:23;13.45;;;12.05;;
11422;SDS011;5768;51.476;7.210;2023-07-09T20:10:30;13.68;;;12.38;;
11422;SDS011;5768;51.476;7.210;2023-07-09T20:15:34;14.23;;;12.82;;
11422;SDS011;5768;51.476;7.210;2023-07-09T20:20:36;16.52;;;14.90;;
11422;SDS011;5768;51.476;7.210;2023-07-09T20:25:40;14.55;;;13.05;;
11422;SDS011;5768;51.476;7.210;2023-07-09T20:30:42;14.52;;;13.23;;
11422;SDS011;5768;51.476;7.210;2023-07-09T20:35:44;14.85;;;13.45;;
11422;SDS011;5768;51.476;7.210;2023-07-09T20:40:48;15.65;;;14.10;;
11422;SDS011;5768;51.476;7.210;2023-07-09T20:45:51;17.90;;;16.00;;
11422;SDS011;5768;51.476;7.210;2023-07-09T20:50:54;17.50;;;15.85;;
11422;SDS011;5768;51.476;7.210;2023-07-09T20:55:58;19.70;;;17.75;;
11422;SDS011;5768;51.476;7.210;2023-07-09T21:01:00;18.77;;;17.08;;
11422;SDS011;5768;51.476;7.210;2023-07-09T21:06:06;18.65;;;16.85;;
11422;SDS011;5768;51.476;7.210;2023-07-09T21:11:17;18.83;;;17.02;;
11422;SDS011;5768;51.476;7.210;2023-07-09T21:16:19;19.20;;;17.40;;
11422;SDS011;5768;51.476;7.210;2023-07-09T21:21:21;19.02;;;17.25;;
11422;SDS011;5768;51.476;7.210;2023-07-09T21:26:26;17.33;;;15.75;;
11422;SDS011;5768;51.476;7.210;2023-07-09T21:31:28;16.75;;;15.23;;
11422;SDS011;5768;51.476;7.210;2023-07-09T21:36:30;15.35;;;13.88;;
11422;SDS011;5768;51.476;7.210;2023-07-09T21:41:34;13.23;;;11.82;;
11422;SDS011;5768;51.476;7.210;2023-07-09T21:46:36;13.15;;;11.95;;
11422;SDS011;5768;51.476;7.210;2023-07-09T21:51:38;12.50;;;11.40;;
11422;SDS011;5768;51.476;7.210;2023-07-09T21:56:42;12.82;;;11.65;;
11422;SDS011;5768;51.476;7.210;2023-07-09T22:01:44;13.20;;;11.80;;
11422;SDS011;5768;51.476;7.210;2023-07-09T22:06:58;12.57;;;11.27;;
11422;SDS011;5768;51.476;7.210;2023-07-09T22:12:04;12.40;;;11.20;;
11422;SDS011;5768;51.476;7.210;2023-07-09T22:17:10;11.88;;;10.88;;
11422;SDS011;5768;51.476;7.210;2023-07-09T22:22:13;11.18;;;10.10;;
11422;SDS011;5768;51.476;7.210;2023-07-09T22:27:17;12.68;;;11.23;;
11422;SDS011;5768;51.476;7.210;2023-07-09T22:32:20;12.70;;;11.07;;
11422;SDS011;5768;51.476;7.210;2023-07-09T22:37:30;11.15;;;9.65;;
11422;SDS011;5768;51.476;7.210;2023-07-09T22:42:35;11.55;;;10.35;;
11422;SDS011;5768;51.476;7.210;2023-07-09T22:47:37;11.40;;;9.85;;
11422;SDS011;5768;51.476;7.210;2023-07-09T22:52:40;11.93;;;9.95;;
11422;SDS011;5768;51.476;7.210;2023-07-09T22:57:44;11.02;;;10.02;;
11422;SDS011;5768;51.476;7.210;2023-07-09T23:02:47;13.30;;;11.85;;
11422;SDS011;5768;51.476;7.210;2023-07-09T23:07:49;13.90;;;11.95;;
11422;SDS011;5768;51.476;7.210;2023-07-09T23:12:54;14.15;;;12.90;;
11422;SDS011;5768;51.476;7.210;2023-07-09T23:17:57;13.35;;;12.05;;
11422;SDS011;5768;51.476;7.210;2023-07-09T23:23:00;13.63;;;12.20;;
11422;SDS011;5768;51.476;7.210;2023-07-09T23:28:06;14.10;;;12.75;;
11422;SDS011;5768;51.476;7.210;2023-07-09T23:38:30;15.02;;;13.40;;
11422;SDS011;5768;51.476;7.210;2023-07-09T23:43:35;15.80;;;14.30;;
11422;SDS011;5768;51.476;7.210;2023-07-09T23:48:42;16.05;;;14.32;;
11422;SDS011;5768;51.476;7.210;2023-07-09T23:53:45;17.17;;;14.93;;
11422;SDS011;5768;51.476;7.210;2023-07-09T23:58:49;16.45;;;14.68;;
